createdAt,value
2023-05-05T00:00:32.295Z,26.27
2023-05-05T00:01:32.331Z,26.25
2023-05-05T00:02:32.426Z,26.22
2023-05-05T00:03:32.395Z,26.24
2023-05-05T00:04:32.440Z,26.24
2023-05-05T00:05:32.407Z,26.22
2023-05-05T00:06:32.420Z,26.25
2023-05-05T00:07:32.443Z,26.22
2023-05-05T00:08:32.463Z,26.24
2023-05-05T00:09:32.475Z,26.24
2023-05-05T00:10:32.515Z,26.20
2023-05-05T00:11:32.513Z,26.24
2023-05-05T00:12:32.584Z,26.22
2023-05-05T00:13:32.582Z,26.21
2023-05-05T00:14:32.584Z,26.22
2023-05-05T00:15:32.603Z,26.21
2023-05-05T00:16:32.650Z,26.22
2023-05-05T00:17:32.677Z,26.21
2023-05-05T00:18:32.697Z,26.22
2023-05-05T00:19:32.718Z,26.20
2023-05-05T00:20:32.738Z,26.20
2023-05-05T00:21:32.758Z,26.21
2023-05-05T00:22:32.784Z,26.18
2023-05-05T00:23:32.802Z,26.21
2023-05-05T00:24:32.869Z,26.20
2023-05-05T00:25:32.853Z,26.20
2023-05-05T00:26:32.881Z,26.20
2023-05-05T00:27:32.916Z,26.20
2023-05-05T00:28:32.940Z,26.20
2023-05-05T00:29:32.971Z,26.18
2023-05-05T00:30:32.967Z,26.20
2023-05-05T00:31:33.062Z,26.21
2023-05-05T00:32:33.046Z,26.17
2023-05-05T00:33:33.084Z,26.18
2023-05-05T00:34:33.059Z,26.18
2023-05-05T00:35:33.111Z,26.18
2023-05-05T00:36:33.189Z,26.18
2023-05-05T00:37:33.146Z,26.15
2023-05-05T00:38:33.111Z,26.17
2023-05-05T00:39:33.098Z,26.18
2023-05-05T00:40:33.177Z,26.18
2023-05-05T00:41:33.098Z,26.17
2023-05-05T00:42:33.025Z,26.20
2023-05-05T00:43:32.994Z,26.15
2023-05-05T00:44:32.986Z,26.18
2023-05-05T00:45:32.982Z,26.17
2023-05-05T00:46:33.013Z,26.15
2023-05-05T00:47:32.970Z,26.17
2023-05-05T00:48:32.908Z,26.15
2023-05-05T00:49:32.946Z,26.14
2023-05-05T00:50:32.867Z,26.15
2023-05-05T00:51:32.972Z,26.15
2023-05-05T00:52:32.940Z,26.15
2023-05-05T00:53:32.978Z,26.17
2023-05-05T00:54:33.016Z,26.15
2023-05-05T00:55:33.052Z,26.15
2023-05-05T00:56:33.080Z,26.13
2023-05-05T00:57:33.146Z,26.13
2023-05-05T00:58:33.152Z,26.14
2023-05-05T00:59:33.170Z,26.17
2023-05-05T01:00:33.246Z,26.13
2023-05-05T01:01:33.251Z,26.14
2023-05-05T01:02:33.335Z,26.13
2023-05-05T01:03:33.466Z,26.13
2023-05-05T01:04:33.331Z,26.15
2023-05-05T01:05:33.380Z,26.14
2023-05-05T01:06:33.404Z,26.13
2023-05-05T01:07:33.440Z,26.14
2023-05-05T01:08:33.489Z,26.14
2023-05-05T01:09:33.473Z,26.13
2023-05-05T01:10:33.515Z,26.14
2023-05-05T01:11:33.550Z,26.15
2023-05-05T01:12:33.604Z,26.14
2023-05-05T01:13:33.612Z,26.13
2023-05-05T01:14:33.654Z,26.14
2023-05-05T01:15:33.658Z,26.14
2023-05-05T01:16:33.746Z,26.13
2023-05-05T01:17:33.776Z,26.13
2023-05-05T01:18:33.768Z,26.14
2023-05-05T01:19:33.791Z,26.11
2023-05-05T01:20:33.809Z,26.13
2023-05-05T01:21:33.847Z,26.11
2023-05-05T01:22:33.907Z,26.13
2023-05-05T01:23:33.905Z,26.13
2023-05-05T01:24:33.944Z,26.13
2023-05-05T01:25:33.977Z,26.14
2023-05-05T01:26:34.013Z,26.11
2023-05-05T01:27:34.081Z,26.13
2023-05-05T01:28:34.082Z,26.11
2023-05-05T01:29:34.096Z,26.11
2023-05-05T01:30:34.146Z,26.11
2023-05-05T01:31:34.163Z,26.13
2023-05-05T01:32:34.261Z,26.11
2023-05-05T01:33:34.217Z,26.09
2023-05-05T01:34:34.263Z,26.09
2023-05-05T01:35:34.265Z,26.11
2023-05-05T01:36:34.317Z,26.11
2023-05-05T01:37:34.338Z,26.09
2023-05-05T01:38:34.369Z,26.07
2023-05-05T01:39:34.409Z,26.11
2023-05-05T01:40:34.447Z,26.13
2023-05-05T01:41:34.453Z,26.09
2023-05-05T01:42:34.442Z,26.09
2023-05-05T01:43:34.391Z,26.09
2023-05-05T01:44:34.359Z,26.11
2023-05-05T01:45:34.387Z,26.11
2023-05-05T01:46:34.316Z,26.08
2023-05-05T01:47:34.322Z,26.11
2023-05-05T01:48:34.254Z,26.11
2023-05-05T01:49:34.203Z,26.13
2023-05-05T01:50:34.175Z,26.09
2023-05-05T01:51:34.167Z,26.09
2023-05-05T01:52:34.119Z,26.08
2023-05-05T01:53:34.079Z,26.09
2023-05-05T01:54:34.051Z,26.08
2023-05-05T01:55:34.019Z,26.09
2023-05-05T01:56:33.991Z,26.09
2023-05-05T01:57:33.992Z,26.09
2023-05-05T01:58:33.973Z,26.11
2023-05-05T01:59:33.935Z,26.09
2023-05-05T02:00:33.893Z,26.07
2023-05-05T02:01:33.928Z,26.08
2023-05-05T02:02:33.967Z,26.08
2023-05-05T02:03:34.045Z,26.07
2023-05-05T02:04:34.004Z,26.08
2023-05-05T02:05:34.037Z,26.09
2023-05-05T02:06:34.053Z,26.08
2023-05-05T02:07:34.104Z,26.11
2023-05-05T02:08:34.134Z,26.08
2023-05-05T02:09:34.175Z,26.05
2023-05-05T02:10:34.186Z,26.07
2023-05-05T02:11:34.214Z,26.08
2023-05-05T02:12:34.297Z,26.07
2023-05-05T02:13:34.328Z,26.08
2023-05-05T02:14:34.322Z,26.08
2023-05-05T02:15:34.375Z,26.05
2023-05-05T02:16:34.385Z,26.09
2023-05-05T02:17:34.488Z,26.04
2023-05-05T02:18:34.449Z,26.09
2023-05-05T02:19:34.485Z,26.07
2023-05-05T02:20:34.524Z,26.05
2023-05-05T02:21:34.561Z,26.05
2023-05-05T02:22:34.614Z,26.05
2023-05-05T02:23:34.663Z,26.08
2023-05-05T02:24:34.704Z,26.05
2023-05-05T02:25:34.719Z,26.07
2023-05-05T02:26:34.764Z,26.08
2023-05-05T02:27:34.796Z,26.05
2023-05-05T02:28:34.835Z,26.05
2023-05-05T02:29:34.879Z,26.05
2023-05-05T02:30:34.903Z,26.07
2023-05-05T02:31:34.958Z,26.07
2023-05-05T02:32:35.016Z,26.08
2023-05-05T02:33:35.008Z,26.05
2023-05-05T02:34:35.038Z,26.04
2023-05-05T02:35:35.076Z,26.07
2023-05-05T02:36:35.126Z,26.04
2023-05-05T02:37:35.167Z,26.05
2023-05-05T02:38:35.206Z,26.05
2023-05-05T02:39:35.260Z,26.05
2023-05-05T02:40:35.272Z,26.04
2023-05-05T02:41:35.357Z,26.07
2023-05-05T02:42:35.364Z,26.04
2023-05-05T02:43:35.380Z,26.04
2023-05-05T02:44:35.426Z,26.03
2023-05-05T02:45:35.455Z,26.07
2023-05-05T02:46:35.516Z,26.05
2023-05-05T02:47:35.600Z,26.03
2023-05-05T02:48:35.576Z,26.03
2023-05-05T02:49:35.608Z,26.01
2023-05-05T02:50:35.657Z,26.03
2023-05-05T02:51:35.676Z,26.04
2023-05-05T02:52:35.728Z,26.04
2023-05-05T02:53:35.748Z,26.04
2023-05-05T02:54:35.801Z,26.04
2023-05-05T02:55:35.845Z,26.03
2023-05-05T02:56:35.869Z,26.04
2023-05-05T02:57:35.909Z,26.04
2023-05-05T02:58:35.944Z,26.04
2023-05-05T02:59:35.915Z,26.04
2023-05-05T03:00:35.894Z,26.01
2023-05-05T03:01:35.937Z,26.03
2023-05-05T03:02:35.925Z,26.03
2023-05-05T03:03:35.929Z,26.01
2023-05-05T03:04:35.818Z,26.04
2023-05-05T03:05:35.826Z,26.04
2023-05-05T03:06:35.797Z,26.03
2023-05-05T03:07:35.781Z,26.03
2023-05-05T03:08:35.745Z,26.03
2023-05-05T03:09:35.727Z,26.03
2023-05-05T03:10:35.715Z,26.01
2023-05-05T03:11:35.698Z,26.03
2023-05-05T03:12:35.681Z,26.01
2023-05-05T03:13:35.652Z,26.01
2023-05-05T03:14:35.621Z,26.01
2023-05-05T03:15:35.605Z,26.00
2023-05-05T03:16:35.672Z,26.01
2023-05-05T03:17:35.723Z,26.01
2023-05-05T03:18:35.750Z,26.03
2023-05-05T03:19:35.768Z,26.01
2023-05-05T03:20:35.809Z,26.00
2023-05-05T03:21:35.836Z,26.01
2023-05-05T03:22:35.872Z,26.01
2023-05-05T03:23:35.910Z,26.00
2023-05-05T03:24:36.048Z,25.98
2023-05-05T03:25:35.986Z,26.01
2023-05-05T03:26:36.046Z,26.00
2023-05-05T03:27:36.085Z,26.01
2023-05-05T03:28:36.127Z,26.01
2023-05-05T03:29:36.160Z,26.00
2023-05-05T03:30:36.213Z,26.01
2023-05-05T03:31:36.278Z,26.01
2023-05-05T03:32:36.353Z,25.98
2023-05-05T03:33:36.337Z,26.00
2023-05-05T03:34:36.400Z,25.97
2023-05-05T03:35:36.440Z,26.00
2023-05-05T03:36:36.487Z,25.98
2023-05-05T03:37:36.516Z,25.98
2023-05-05T03:38:36.560Z,25.98
2023-05-05T03:39:36.591Z,25.98
2023-05-05T03:40:43.406Z,26.00
2023-05-05T03:41:37.608Z,26.00
2023-05-05T03:42:36.592Z,26.00
2023-05-05T03:43:36.553Z,26.00
2023-05-05T03:44:36.540Z,25.98
2023-05-05T03:45:36.533Z,25.97
2023-05-05T03:46:36.491Z,25.97
2023-05-05T03:47:36.495Z,26.00
2023-05-05T03:48:36.428Z,25.98
2023-05-05T03:49:36.394Z,25.97
2023-05-05T03:50:36.419Z,25.98
2023-05-05T03:51:36.442Z,25.97
2023-05-05T03:52:36.484Z,25.97
2023-05-05T03:53:36.534Z,25.98
2023-05-05T03:54:36.568Z,25.98
2023-05-05T03:55:36.614Z,25.97
2023-05-05T03:56:36.655Z,25.97
2023-05-05T03:57:36.688Z,25.98
2023-05-05T03:58:36.738Z,25.97
2023-05-05T03:59:36.765Z,25.97
2023-05-05T04:00:36.814Z,25.97
2023-05-05T04:01:36.862Z,25.96
2023-05-05T04:02:36.958Z,25.96
2023-05-05T04:03:37.005Z,25.97
2023-05-05T04:04:36.967Z,25.96
2023-05-05T04:05:37.021Z,25.97
2023-05-05T04:06:37.060Z,25.96
2023-05-05T04:07:37.107Z,25.96
2023-05-05T04:08:37.146Z,25.96
2023-05-05T04:09:37.190Z,25.96
2023-05-05T04:10:37.228Z,25.96
2023-05-05T04:11:37.212Z,25.96
2023-05-05T04:12:37.248Z,25.96
2023-05-05T04:13:37.262Z,25.96
2023-05-05T04:14:37.151Z,25.96
2023-05-05T04:15:37.174Z,25.97
2023-05-05T04:16:37.121Z,25.96
2023-05-05T04:17:37.126Z,25.97
2023-05-05T04:18:37.069Z,25.98
2023-05-05T04:19:37.041Z,25.93
2023-05-05T04:20:37.023Z,25.96
2023-05-05T04:21:37.056Z,25.96
2023-05-05T04:22:37.105Z,25.97
2023-05-05T04:23:37.143Z,25.97
2023-05-05T04:24:37.208Z,25.97
2023-05-05T04:25:37.236Z,25.96
2023-05-05T04:26:37.295Z,25.94
2023-05-05T04:27:37.317Z,25.96
2023-05-05T04:28:37.361Z,25.97
2023-05-05T04:29:37.391Z,25.96
2023-05-05T04:30:37.420Z,25.96
2023-05-05T04:31:37.470Z,25.97
2023-05-05T04:32:37.468Z,25.94
2023-05-05T04:33:37.476Z,25.97
2023-05-05T04:34:37.499Z,25.94
2023-05-05T04:35:37.497Z,25.94
2023-05-05T04:36:37.476Z,25.97
2023-05-05T04:37:37.485Z,25.94
2023-05-05T04:38:37.552Z,25.98
2023-05-05T04:39:37.492Z,25.97
2023-05-05T04:40:37.516Z,25.94
2023-05-05T04:41:37.519Z,25.96
2023-05-05T04:42:37.560Z,25.94
2023-05-05T04:43:37.547Z,25.94
2023-05-05T04:44:37.560Z,25.97
2023-05-05T04:45:37.551Z,25.94
2023-05-05T04:46:37.612Z,25.97
2023-05-05T04:47:37.650Z,25.96
2023-05-05T04:48:37.585Z,25.97
2023-05-05T04:49:37.567Z,25.96
2023-05-05T04:50:37.527Z,25.94
2023-05-05T04:51:37.499Z,25.94
2023-05-05T04:52:37.497Z,25.96
2023-05-05T04:53:37.492Z,25.94
2023-05-05T04:54:37.431Z,25.96
2023-05-05T04:55:37.398Z,25.96
2023-05-05T04:56:37.398Z,25.94
2023-05-05T04:57:37.354Z,25.96
2023-05-05T04:58:37.369Z,25.96
2023-05-05T04:59:37.387Z,25.96
2023-05-05T05:00:37.416Z,25.97
2023-05-05T05:01:38.616Z,25.94
2023-05-05T05:02:37.650Z,25.96
2023-05-05T05:03:37.713Z,25.98
2023-05-05T05:04:37.620Z,25.97
2023-05-05T05:05:37.679Z,25.96
2023-05-05T05:06:37.695Z,25.96
2023-05-05T05:07:37.723Z,25.96
2023-05-05T05:08:37.730Z,25.96
2023-05-05T05:09:37.731Z,25.96
2023-05-05T05:10:37.700Z,25.97
2023-05-05T05:11:37.686Z,25.96
2023-05-05T05:12:37.681Z,25.96
2023-05-05T05:13:37.621Z,25.96
2023-05-05T05:14:37.579Z,25.97
2023-05-05T05:15:37.535Z,25.97
2023-05-05T05:16:37.562Z,25.98
2023-05-05T05:17:37.509Z,25.94
2023-05-05T05:18:37.472Z,25.96
2023-05-05T05:19:37.440Z,25.97
2023-05-05T05:20:37.414Z,25.97
2023-05-05T05:21:37.426Z,25.94
2023-05-05T05:22:37.414Z,25.94
2023-05-05T05:23:37.451Z,25.94
2023-05-05T05:24:37.632Z,25.96
2023-05-05T05:25:37.455Z,25.94
2023-05-05T05:26:37.381Z,25.93
2023-05-05T05:27:37.358Z,25.96
2023-05-05T05:28:37.353Z,25.96
2023-05-05T05:29:37.350Z,25.94
2023-05-05T05:30:37.290Z,25.96
2023-05-05T05:31:37.341Z,25.91
2023-05-05T05:32:37.274Z,25.94
2023-05-05T05:33:37.208Z,25.94
2023-05-05T05:34:37.203Z,25.94
2023-05-05T05:35:37.200Z,25.91
2023-05-05T05:36:37.117Z,25.94
2023-05-05T05:37:37.093Z,25.97
2023-05-05T05:38:37.117Z,25.97
2023-05-05T05:39:37.059Z,25.98
2023-05-05T05:40:37.044Z,26.00
2023-05-05T05:41:37.034Z,26.03
2023-05-05T05:42:37.064Z,26.07
2023-05-05T05:43:37.096Z,26.07
2023-05-05T05:44:37.069Z,26.08
2023-05-05T05:45:37.033Z,26.09
2023-05-05T05:46:37.052Z,26.13
2023-05-05T05:47:36.984Z,26.15
2023-05-05T05:48:37.000Z,26.17
2023-05-05T05:49:37.065Z,26.20
2023-05-05T05:50:36.890Z,26.20
2023-05-05T05:51:36.843Z,26.24
2023-05-05T05:52:36.816Z,26.27
2023-05-05T05:53:36.814Z,26.27
2023-05-05T05:54:36.749Z,26.28
2023-05-05T05:55:36.714Z,26.31
2023-05-05T05:56:36.682Z,26.32
2023-05-05T05:57:36.656Z,26.30
2023-05-05T05:58:36.647Z,26.36
2023-05-05T05:59:36.654Z,26.36
2023-05-05T06:00:36.549Z,26.39
2023-05-05T06:01:36.526Z,26.41
2023-05-05T06:02:36.579Z,26.42
2023-05-05T06:03:36.568Z,26.46
2023-05-05T06:04:36.633Z,26.46
2023-05-05T06:05:36.496Z,26.46
2023-05-05T06:06:36.512Z,26.45
2023-05-05T06:07:36.533Z,26.50
2023-05-05T06:08:36.562Z,26.50
2023-05-05T06:09:36.561Z,26.53
2023-05-05T06:10:36.580Z,26.52
2023-05-05T06:11:36.598Z,26.59
2023-05-05T06:12:36.646Z,26.56
2023-05-05T06:13:36.605Z,26.57
2023-05-05T06:14:36.599Z,26.60
2023-05-05T06:15:36.640Z,26.60
2023-05-05T06:16:36.677Z,26.62
2023-05-05T06:17:36.601Z,26.62
2023-05-05T06:18:36.608Z,26.64
2023-05-05T06:19:36.682Z,26.66
2023-05-05T06:20:36.623Z,26.66
2023-05-05T06:21:36.620Z,26.69
2023-05-05T06:22:36.608Z,26.70
2023-05-05T06:23:36.649Z,26.72
2023-05-05T06:24:36.630Z,26.74
2023-05-05T06:25:36.597Z,26.77
2023-05-05T06:26:36.664Z,26.80
2023-05-05T06:27:36.548Z,26.84
2023-05-05T06:28:36.573Z,26.89
2023-05-05T06:29:36.534Z,26.93
2023-05-05T06:30:36.494Z,26.94
2023-05-05T06:31:37.094Z,26.97
2023-05-05T06:32:36.495Z,26.98
2023-05-05T06:33:36.474Z,27.02
2023-05-05T06:34:36.379Z,27.04
2023-05-05T06:35:36.343Z,27.01
2023-05-05T06:36:36.410Z,27.05
2023-05-05T06:37:36.309Z,27.05
2023-05-05T06:38:36.276Z,27.09
2023-05-05T06:39:36.231Z,27.09
2023-05-05T06:40:36.229Z,27.11
2023-05-05T06:41:36.241Z,27.12
2023-05-05T06:42:36.195Z,27.12
2023-05-05T06:43:36.188Z,27.11
2023-05-05T06:44:36.189Z,27.12
2023-05-05T06:45:36.157Z,27.16
2023-05-05T06:46:36.172Z,27.15
2023-05-05T06:47:36.217Z,27.15
2023-05-05T06:48:36.115Z,27.14
2023-05-05T06:49:36.146Z,27.09
2023-05-05T06:50:36.066Z,27.07
2023-05-05T06:51:36.017Z,27.07
2023-05-05T06:52:36.030Z,27.02
2023-05-05T06:53:36.075Z,26.98
2023-05-05T06:54:35.989Z,27.02
2023-05-05T06:55:35.932Z,26.98
2023-05-05T06:56:35.902Z,26.97
2023-05-05T06:57:35.885Z,26.94
2023-05-05T06:58:35.868Z,26.94
2023-05-05T06:59:35.826Z,26.93
2023-05-05T07:00:35.901Z,26.94
2023-05-05T07:01:35.803Z,26.94
2023-05-05T07:02:35.744Z,26.90
2023-05-05T07:03:35.764Z,26.90
2023-05-05T07:04:35.702Z,26.90
2023-05-05T07:05:35.680Z,26.86
2023-05-05T07:06:35.642Z,26.84
2023-05-05T07:07:35.603Z,26.84
2023-05-05T07:08:35.584Z,26.83
2023-05-05T07:09:35.616Z,26.80
2023-05-05T07:10:35.547Z,26.81
2023-05-05T07:11:35.522Z,26.81
2023-05-05T07:12:35.505Z,26.80
2023-05-05T07:13:35.474Z,26.81
2023-05-05T07:14:35.456Z,26.81
2023-05-05T07:15:35.435Z,26.80
2023-05-05T07:16:35.502Z,26.81
2023-05-05T07:17:35.486Z,26.80
2023-05-05T07:18:35.400Z,26.81
2023-05-05T07:19:35.370Z,26.81
2023-05-05T07:20:35.332Z,26.76
2023-05-05T07:21:35.331Z,26.76
2023-05-05T07:22:35.316Z,26.74
2023-05-05T07:23:35.281Z,26.73
2023-05-05T07:24:35.384Z,26.74
2023-05-05T07:25:35.396Z,26.72
2023-05-05T07:26:35.252Z,26.73
2023-05-05T07:27:35.241Z,26.70
2023-05-05T07:28:35.259Z,26.73
2023-05-05T07:29:35.166Z,26.72
2023-05-05T07:30:35.151Z,26.69
2023-05-05T07:31:35.157Z,26.72
2023-05-05T07:32:35.248Z,26.70
2023-05-05T07:33:35.096Z,26.70
2023-05-05T07:34:35.070Z,26.70
2023-05-05T07:35:35.062Z,26.72
2023-05-05T07:36:35.039Z,26.76
2023-05-05T07:37:35.016Z,26.73
2023-05-05T07:38:34.970Z,26.73
2023-05-05T07:39:34.978Z,26.74
2023-05-05T07:40:34.941Z,26.79
2023-05-05T07:41:34.997Z,26.81
2023-05-05T07:42:34.881Z,26.79
2023-05-05T07:43:34.856Z,26.90
2023-05-05T07:44:34.816Z,26.89
2023-05-05T07:45:34.835Z,26.89
2023-05-05T07:46:34.849Z,26.91
2023-05-05T07:47:34.775Z,26.93
2023-05-05T07:48:41.900Z,26.90
2023-05-05T07:49:34.652Z,26.87
2023-05-05T07:51:53.670Z,26.86
2023-05-05T07:52:59.355Z,26.89
2023-05-05T07:53:54.419Z,26.79
2023-05-05T07:54:53.373Z,26.79
2023-05-05T07:55:53.332Z,26.67
2023-05-05T07:56:53.382Z,26.70
2023-05-05T07:57:53.266Z,26.74
2023-05-05T07:58:53.311Z,26.74
2023-05-05T07:59:53.349Z,26.77
2023-05-05T08:00:53.230Z,26.73
2023-05-05T08:01:54.947Z,26.73
2023-05-05T08:02:53.257Z,26.70
2023-05-05T08:03:53.174Z,26.67
2023-05-05T08:04:53.092Z,26.46
2023-05-05T08:05:53.070Z,26.41
2023-05-05T08:06:53.049Z,26.43
2023-05-05T08:07:53.018Z,26.46
2023-05-05T08:08:52.991Z,26.50
2023-05-05T08:09:52.950Z,26.50
2023-05-05T08:10:53.010Z,26.52
2023-05-05T08:11:52.977Z,26.49
2023-05-05T08:12:53.200Z,26.46
2023-05-05T08:13:53.021Z,26.35
2023-05-05T08:14:53.056Z,26.24
2023-05-05T08:15:53.116Z,26.21
2023-05-05T08:16:53.125Z,26.08
2023-05-05T08:17:53.118Z,26.08
2023-05-05T08:18:53.172Z,26.17
2023-05-05T08:19:53.137Z,26.21
2023-05-05T08:20:53.059Z,26.25
2023-05-05T08:21:52.999Z,26.31
2023-05-05T08:22:52.992Z,26.35
2023-05-05T08:23:52.972Z,26.39
2023-05-05T08:24:52.964Z,26.45
2023-05-05T08:25:52.910Z,26.53
2023-05-05T08:26:52.888Z,26.57
2023-05-05T08:27:52.866Z,26.63
2023-05-05T08:28:52.908Z,26.64
2023-05-05T08:29:52.815Z,26.72
2023-05-05T08:30:52.871Z,26.76
2023-05-05T08:31:52.798Z,26.70
2023-05-05T08:32:52.906Z,26.76
2023-05-05T08:33:52.747Z,26.79
2023-05-05T08:34:52.677Z,26.80
2023-05-05T08:35:52.629Z,26.80
2023-05-05T08:36:52.603Z,26.79
2023-05-05T08:37:52.600Z,26.80
2023-05-05T08:38:52.548Z,26.81
2023-05-05T08:39:52.647Z,26.84
2023-05-05T08:40:52.513Z,26.86
2023-05-05T08:41:52.480Z,26.86
2023-05-05T08:42:52.444Z,26.87
2023-05-05T08:43:52.417Z,26.86
2023-05-05T08:44:52.555Z,26.90
2023-05-05T08:45:52.433Z,26.87
2023-05-05T08:46:52.449Z,26.87
2023-05-05T08:47:52.375Z,26.87
2023-05-05T08:48:52.285Z,26.81
2023-05-05T08:49:52.251Z,26.86
2023-05-05T08:50:52.321Z,26.89
2023-05-05T08:51:52.206Z,26.89
2023-05-05T08:52:52.196Z,26.93
2023-05-05T08:53:52.212Z,26.94
2023-05-05T08:54:52.088Z,26.94
2023-05-05T08:55:52.060Z,26.95
2023-05-05T08:56:52.090Z,26.98
2023-05-05T08:57:51.990Z,26.97
2023-05-05T08:58:51.990Z,27.00
2023-05-05T08:59:51.962Z,26.97
2023-05-05T09:00:52.187Z,26.94
2023-05-05T09:01:51.899Z,26.97
2023-05-05T09:02:52.056Z,26.94
2023-05-05T09:03:52.702Z,26.94
2023-05-05T09:04:51.840Z,26.95
2023-05-05T09:05:51.827Z,26.94
2023-05-05T09:06:51.762Z,26.95
2023-05-05T09:07:51.728Z,26.97
2023-05-05T09:08:51.719Z,26.97
2023-05-05T09:09:51.671Z,26.97
2023-05-05T09:10:51.641Z,26.95
2023-05-05T09:11:51.682Z,26.98
2023-05-05T09:12:51.722Z,27.00
2023-05-05T09:13:51.622Z,27.00
2023-05-05T09:14:51.500Z,26.98
2023-05-05T09:15:51.471Z,26.97
2023-05-05T09:16:51.552Z,26.93
2023-05-05T09:17:51.489Z,26.93
2023-05-05T09:18:51.377Z,26.91
2023-05-05T09:19:51.341Z,26.91
2023-05-05T09:20:51.312Z,26.90
2023-05-05T09:21:51.281Z,26.93
2023-05-05T09:22:51.248Z,26.90
2023-05-05T09:23:51.211Z,26.91
2023-05-05T09:24:51.184Z,26.91
2023-05-05T09:25:51.174Z,26.89
2023-05-05T09:26:51.143Z,26.87
2023-05-05T09:27:51.126Z,26.90
2023-05-05T09:28:51.084Z,26.89
2023-05-05T09:29:51.060Z,26.90
2023-05-05T09:30:51.093Z,26.89
2023-05-05T09:31:51.001Z,26.89
2023-05-05T09:32:51.219Z,26.89
2023-05-05T09:33:50.930Z,26.91
2023-05-05T09:34:50.955Z,26.93
2023-05-05T09:35:50.890Z,26.90
2023-05-05T09:36:50.861Z,26.87
2023-05-05T09:37:50.907Z,26.89
2023-05-05T09:38:50.910Z,26.93
2023-05-05T09:39:50.814Z,26.93
2023-05-05T09:40:50.737Z,26.93
2023-05-05T09:41:50.706Z,26.93
2023-05-05T09:42:50.705Z,26.98
2023-05-05T09:43:50.735Z,27.00
2023-05-05T09:44:50.617Z,27.01
2023-05-05T09:45:50.591Z,27.01
2023-05-05T09:46:50.952Z,27.02
2023-05-05T09:47:50.592Z,27.04
2023-05-05T09:48:50.648Z,27.09
2023-05-05T09:49:50.473Z,27.14
2023-05-05T09:50:50.482Z,27.16
2023-05-05T09:51:50.506Z,27.16
2023-05-05T09:52:50.526Z,27.19
2023-05-05T09:53:50.602Z,27.21
2023-05-05T09:54:50.627Z,27.22
2023-05-05T09:55:50.729Z,27.22
2023-05-05T09:56:50.794Z,27.24
2023-05-05T09:57:50.736Z,27.22
2023-05-05T09:58:50.727Z,27.25
2023-05-05T09:59:50.689Z,27.25
2023-05-05T10:00:50.668Z,27.26
2023-05-05T10:01:50.763Z,27.26
2023-05-05T10:02:50.649Z,27.28
2023-05-05T10:03:50.567Z,27.28
2023-05-05T10:04:50.654Z,27.26
2023-05-05T10:05:50.576Z,27.29
2023-05-05T10:06:50.483Z,27.31
2023-05-05T10:07:50.453Z,27.32
2023-05-05T10:08:50.465Z,27.31
2023-05-05T10:09:50.501Z,27.33
2023-05-05T10:10:50.553Z,27.38
2023-05-05T10:11:50.552Z,27.39
2023-05-05T10:12:50.574Z,27.38
2023-05-05T10:13:50.591Z,27.35
2023-05-05T10:14:50.677Z,27.35
2023-05-05T10:15:53.255Z,27.35
2023-05-05T10:16:50.524Z,27.33
2023-05-05T10:18:02.286Z,27.36
2023-05-05T10:18:51.485Z,27.35
2023-05-05T10:19:50.533Z,27.35
2023-05-05T10:20:50.491Z,27.33
2023-05-05T10:21:50.365Z,27.36
2023-05-05T10:22:50.292Z,27.38
2023-05-05T10:23:50.271Z,27.38
2023-05-05T10:24:50.234Z,27.38
2023-05-05T10:25:50.191Z,27.39
2023-05-05T10:26:50.268Z,27.39
2023-05-05T10:27:50.167Z,27.42
2023-05-05T10:28:50.101Z,27.43
2023-05-05T10:29:50.112Z,27.43
2023-05-05T10:30:50.141Z,27.45
2023-05-05T10:31:50.115Z,27.42
2023-05-05T10:32:56.066Z,27.45
2023-05-05T10:33:51.097Z,27.45
2023-05-05T10:34:50.003Z,27.50
2023-05-05T10:35:49.976Z,27.54
2023-05-05T10:36:50.058Z,27.59
2023-05-05T10:37:49.894Z,27.63
2023-05-05T10:38:49.891Z,27.52
2023-05-05T10:39:49.828Z,27.53
2023-05-05T10:40:49.808Z,27.54
2023-05-05T10:41:49.763Z,27.53
2023-05-05T10:42:49.726Z,27.53
2023-05-05T10:43:49.699Z,27.56
2023-05-05T10:44:49.684Z,27.48
2023-05-05T10:45:49.684Z,27.46
2023-05-05T10:46:49.618Z,27.46
2023-05-05T10:47:49.701Z,27.42
2023-05-05T10:48:49.673Z,27.41
2023-05-05T10:49:49.679Z,27.42
2023-05-05T10:50:49.683Z,27.42
2023-05-05T10:51:49.678Z,27.42
2023-05-05T10:52:49.696Z,27.43
2023-05-05T10:53:49.695Z,27.46
2023-05-05T10:54:49.618Z,27.49
2023-05-05T10:55:49.603Z,27.49
2023-05-05T10:56:49.555Z,27.52
2023-05-05T10:57:49.520Z,27.52
2023-05-05T10:58:59.851Z,27.54
2023-05-05T10:59:50.447Z,27.59
2023-05-05T11:00:49.447Z,27.60
2023-05-05T11:01:49.455Z,27.57
2023-05-05T11:02:49.360Z,27.60
2023-05-05T11:03:49.330Z,27.59
2023-05-05T11:04:49.228Z,27.64
2023-05-05T11:05:49.191Z,27.63
2023-05-05T11:06:49.165Z,27.63
2023-05-05T11:07:49.153Z,27.66
2023-05-05T11:08:49.124Z,27.67
2023-05-05T11:09:49.022Z,27.67
2023-05-05T11:10:49.025Z,27.67
2023-05-05T11:11:48.954Z,27.68
2023-05-05T11:12:48.943Z,27.74
2023-05-05T11:13:48.887Z,27.71
2023-05-05T11:14:48.860Z,27.73
2023-05-05T11:15:48.761Z,27.73
2023-05-05T11:16:48.770Z,27.73
2023-05-05T11:17:48.840Z,27.77
2023-05-05T11:18:48.645Z,27.77
2023-05-05T11:19:48.667Z,27.77
2023-05-05T11:20:48.638Z,27.79
2023-05-05T11:21:48.523Z,27.79
2023-05-05T11:22:48.513Z,27.83
2023-05-05T11:23:48.479Z,27.81
2023-05-05T11:24:48.468Z,27.83
2023-05-05T11:25:48.385Z,27.87
2023-05-05T11:26:48.318Z,27.84
2023-05-05T11:27:48.295Z,27.85
2023-05-05T11:28:48.276Z,27.81
2023-05-05T11:29:50.253Z,27.90
2023-05-05T11:30:48.201Z,27.91
2023-05-05T11:31:48.132Z,27.95
2023-05-05T11:32:48.154Z,27.95
2023-05-05T11:33:48.085Z,27.97
2023-05-05T11:34:48.002Z,28.00
2023-05-05T11:35:48.035Z,28.00
2023-05-05T11:36:47.937Z,27.94
2023-05-05T11:37:47.909Z,28.01
2023-05-05T11:38:47.870Z,27.98
2023-05-05T11:39:47.830Z,28.00
2023-05-05T11:40:47.769Z,27.98
2023-05-05T11:41:47.749Z,28.00
2023-05-05T11:42:47.699Z,27.97
2023-05-05T11:43:47.666Z,27.95
2023-05-05T11:44:47.631Z,27.95
2023-05-05T11:45:47.595Z,27.91
2023-05-05T11:46:47.563Z,27.90
2023-05-05T11:47:47.528Z,27.85
2023-05-05T11:48:47.462Z,27.85
2023-05-05T11:49:47.435Z,27.83
2023-05-05T11:50:47.397Z,27.81
2023-05-05T11:51:47.367Z,27.80
2023-05-05T11:52:47.392Z,27.77
2023-05-05T11:53:47.297Z,27.77
2023-05-05T11:54:47.305Z,27.74
2023-05-05T11:55:47.258Z,27.74
2023-05-05T11:56:47.248Z,27.71
2023-05-05T11:57:47.170Z,27.71
2023-05-05T11:58:47.134Z,27.73
2023-05-05T11:59:48.378Z,27.73
2023-05-05T12:00:47.047Z,27.71
2023-05-05T12:01:47.017Z,27.74
2023-05-05T12:02:47.028Z,27.71
2023-05-05T12:03:47.090Z,27.73
2023-05-05T12:04:47.039Z,27.73
2023-05-05T12:05:46.884Z,27.73
2023-05-05T12:06:46.845Z,27.68
2023-05-05T12:07:46.816Z,27.70
2023-05-05T12:08:46.777Z,27.71
2023-05-05T12:09:46.756Z,27.73
2023-05-05T12:10:46.703Z,27.70
2023-05-05T12:11:46.683Z,27.71
2023-05-05T12:12:46.772Z,27.68
2023-05-05T12:13:46.638Z,27.71
2023-05-05T12:14:46.562Z,27.70
2023-05-05T12:15:46.588Z,27.70
2023-05-05T12:16:46.554Z,27.70
2023-05-05T12:17:46.546Z,27.68
2023-05-05T12:18:46.420Z,27.68
2023-05-05T12:19:46.421Z,27.66
2023-05-05T12:20:46.400Z,27.66
2023-05-05T12:21:46.448Z,27.66
2023-05-05T12:22:46.393Z,27.66
2023-05-05T12:23:46.409Z,27.67
2023-05-05T12:24:46.401Z,27.64
2023-05-05T12:25:46.396Z,27.66
2023-05-05T12:26:46.390Z,27.67
2023-05-05T12:27:46.408Z,27.68
2023-05-05T12:28:46.465Z,27.68
2023-05-05T12:29:46.407Z,27.67
2023-05-05T12:30:46.426Z,27.66
2023-05-05T12:31:46.459Z,27.67
2023-05-05T12:32:46.498Z,27.66
2023-05-05T12:33:46.424Z,27.63
2023-05-05T12:34:46.442Z,27.66
2023-05-05T12:35:46.452Z,27.63
2023-05-05T12:36:46.431Z,27.67
2023-05-05T12:37:46.479Z,27.67
2023-05-05T12:38:46.447Z,27.67
2023-05-05T12:39:46.449Z,27.67
2023-05-05T12:40:46.481Z,27.67
2023-05-05T12:41:46.446Z,27.67
2023-05-05T12:42:46.516Z,27.70
2023-05-05T12:43:46.449Z,27.67
2023-05-05T12:44:46.425Z,27.70
2023-05-05T12:45:46.534Z,27.70
2023-05-05T12:46:46.440Z,27.67
2023-05-05T12:47:46.473Z,27.68
2023-05-05T12:48:48.365Z,27.70
2023-05-05T12:49:46.438Z,27.68
2023-05-05T12:50:46.463Z,27.68
2023-05-05T12:51:46.431Z,27.68
2023-05-05T12:52:46.433Z,27.71
2023-05-05T12:53:46.444Z,27.68